createdAt,value
2018-04-08T00:01:41.650Z,1014.41
2018-04-08T00:11:37.907Z,1014.41
2018-04-08T00:21:33.349Z,1014.41
2018-04-08T00:31:30.788Z,1014.41
2018-04-08T00:41:26.850Z,1013.36
2018-04-08T00:51:22.275Z,1013.36
2018-04-08T01:01:21.143Z,1013.36
2018-04-08T01:11:17.756Z,1013.36
2018-04-08T01:21:13.228Z,1013.36
2018-04-08T01:31:09.080Z,1013.36
2018-04-08T01:41:04.387Z,1013.36
2018-04-08T01:51:01.615Z,1013.36
2018-04-08T02:00:57.861Z,1013.36
2018-04-08T02:10:53.828Z,1013.36
2018-04-08T02:20:50.435Z,1013.36
2018-04-08T02:30:44.984Z,1012.32
2018-04-08T02:40:42.932Z,1012.32
2018-04-08T02:50:41.253Z,1012.32
2018-04-08T03:00:37.111Z,1012.32
2018-04-08T03:10:33.444Z,1012.32
2018-04-08T03:20:31.227Z,1012.32
2018-04-08T03:30:28.157Z,1012.32
2018-04-08T03:40:23.147Z,1012.32
2018-04-08T03:50:21.695Z,1012.32
2018-04-08T04:00:17.948Z,1012.32
2018-04-08T04:10:13.480Z,1012.32
2018-04-08T04:20:10.589Z,1012.32
2018-04-08T04:30:06.168Z,1012.32
2018-04-08T04:40:01.342Z,1012.32
2018-04-08T04:49:57.747Z,1012.32
2018-04-08T04:59:56.099Z,1012.32
2018-04-08T05:09:48.981Z,1012.32
2018-04-08T05:19:41.960Z,1012.32
2018-04-08T05:29:39.114Z,1012.32
2018-04-08T05:39:36.612Z,1012.32
2018-04-08T05:49:27.324Z,1012.32
2018-04-08T05:59:25.516Z,1012.32
2018-04-08T06:09:23.413Z,1012.32
2018-04-08T06:19:19.348Z,1012.32
2018-04-08T06:29:11.876Z,1012.32
2018-04-08T06:39:09.335Z,1012.32
2018-04-08T06:49:04.378Z,1012.32
2018-04-08T06:58:56.486Z,1011.27
2018-04-08T07:08:52.732Z,1011.27
2018-04-08T07:18:49.678Z,1011.27
2018-04-08T07:28:47.818Z,1011.27
2018-04-08T07:38:44.110Z,1011.27
2018-04-08T07:48:41.806Z,1011.27
2018-04-08T07:58:39.981Z,1011.27
2018-04-08T08:08:35.643Z,1011.27
2018-04-08T08:18:29.849Z,1011.27
2018-04-08T08:28:23.599Z,1011.27
2018-04-08T08:38:19.673Z,1011.27
2018-04-08T08:48:14.419Z,1011.27
2018-04-08T08:58:10.848Z,1011.27
2018-04-08T09:08:07.654Z,1011.27
2018-04-08T09:18:04.238Z,1011.27
2018-04-08T09:27:50.337Z,1011.27
2018-04-08T09:37:40.827Z,1011.27
2018-04-08T09:47:38.136Z,1010.23
2018-04-08T09:57:32.843Z,1010.23
2018-04-08T10:07:26.185Z,1010.23
2018-04-08T10:17:23.488Z,1010.23
2018-04-08T10:27:18.892Z,1010.23
2018-04-08T10:37:14.580Z,1010.23
2018-04-08T10:47:11.472Z,1010.23
2018-04-08T10:56:48.522Z,1010.23
2018-04-08T11:06:25.774Z,1010.23
2018-04-08T11:16:06.522Z,1010.23
2018-04-08T11:25:36.245Z,1010.23
2018-04-08T11:35:13.926Z,1009.18
2018-04-08T11:44:51.429Z,1009.18
2018-04-08T11:54:29.814Z,1009.18
2018-04-08T12:04:07.781Z,1009.18
2018-04-08T12:13:43.953Z,1009.18
2018-04-08T12:23:21.658Z,1009.18
2018-04-08T12:33:04.267Z,1009.18
2018-04-08T12:42:33.873Z,1009.18
2018-04-08T12:52:11.353Z,1009.18
2018-04-08T13:01:51.925Z,1008.13
2018-04-08T13:11:31.030Z,1008.13
2018-04-08T13:21:10.288Z,1008.13
2018-04-08T13:30:49.276Z,1008.13
2018-04-08T13:40:28.272Z,1008.13
2018-04-08T13:50:08.227Z,1008.13
2018-04-08T13:59:47.727Z,1008.13
2018-04-08T14:09:31.288Z,1008.13
2018-04-08T14:19:02.110Z,1008.13
2018-04-08T14:28:40.402Z,1008.13
2018-04-08T14:38:20.612Z,1007.09
2018-04-08T14:48:03.277Z,1007.09
2018-04-08T14:57:32.852Z,1007.09
2018-04-08T15:07:06.737Z,1007.09
2018-04-08T15:16:40.048Z,1007.09
2018-04-08T15:26:14.932Z,1007.09
2018-04-08T15:35:53.310Z,1007.09
2018-04-08T15:45:32.000Z,1007.09
2018-04-08T15:55:08.786Z,1007.09
2018-04-08T16:04:40.822Z,1007.09
2018-04-08T16:14:06.995Z,1007.09
2018-04-08T16:23:42.683Z,1007.09
2018-04-08T16:33:18.856Z,1007.09
2018-04-08T16:42:55.073Z,1007.09
2018-04-08T16:52:31.058Z,1007.09
2018-04-08T17:02:06.995Z,1007.09
2018-04-08T17:11:42.664Z,1007.09
2018-04-08T17:21:18.198Z,1007.09
2018-04-08T17:30:54.235Z,1007.09
2018-04-08T17:40:31.835Z,1007.09
2018-04-08T17:49:59.782Z,1007.09
2018-04-08T17:59:54.634Z,1007.09
2018-04-08T18:09:46.686Z,1007.09
2018-04-08T18:19:41.655Z,1008.13
2018-04-08T18:29:38.369Z,1008.13
2018-04-08T18:39:32.602Z,1008.13
2018-04-08T18:49:26.777Z,1008.13
2018-04-08T18:59:30.275Z,1008.13
2018-04-08T19:09:22.959Z,1008.13
2018-04-08T19:19:19.584Z,1008.13
2018-04-08T19:29:14.742Z,1008.13
2018-04-08T19:39:11.740Z,1008.13
2018-04-08T19:49:03.408Z,1009.18
2018-04-08T19:58:58.636Z,1009.18
2018-04-08T20:08:54.129Z,1008.13
2018-04-08T20:18:49.763Z,1008.13
2018-04-08T20:28:46.834Z,1009.18
2018-04-08T20:38:40.409Z,1008.13
2018-04-08T20:48:37.729Z,1009.18
2018-04-08T20:58:34.633Z,1009.18
2018-04-08T21:08:29.717Z,1009.18
2018-04-08T21:18:24.872Z,1008.13
2018-04-08T21:28:21.992Z,1008.13
2018-04-08T21:38:19.409Z,1009.18
2018-04-08T21:48:15.782Z,1009.18
2018-04-08T21:58:11.593Z,1009.18
2018-04-08T22:08:08.811Z,1008.13
2018-04-08T22:18:05.131Z,1008.13
2018-04-08T22:28:01.372Z,1008.13
2018-04-08T22:37:54.732Z,1008.13
2018-04-08T22:47:52.323Z,1008.13
2018-04-08T22:57:47.541Z,1009.18
2018-04-08T23:07:41.603Z,1008.13
2018-04-08T23:17:37.941Z,1008.13
2018-04-08T23:27:34.675Z,1008.13
2018-04-08T23:37:31.831Z,1008.13
2018-04-08T23:47:27.821Z,1008.13
2018-04-08T23:57:22.481Z,1008.13
